sensor_id;sensor_type;location;lat;lon;timestamp;pressure;altitude;pressure_sealevel;temperature;humidity
10476;BME280;26166;48.264;11.436;2022-10-17T00:00:25;96775.06;;;20.28;58.92
10476;BME280;26166;48.264;11.436;2022-10-17T00:03:25;96777.75;;;20.28;58.80
10476;BME280;26166;48.264;11.436;2022-10-17T00:06:25;96779.59;;;20.28;58.86
10476;BME280;26166;48.264;11.436;2022-10-17T00:09:26;96776.09;;;20.27;59.01
10476;BME280;26166;48.264;11.436;2022-10-17T00:12:26;96780.59;;;20.27;59.01
10476;BME280;26166;48.264;11.436;2022-10-17T00:15:26;96777.94;;;20.27;59.06
10476;BME280;26166;48.264;11.436;2022-10-17T00:18:26;96784.09;;;20.27;58.79
10476;BME280;26166;48.264;11.436;2022-10-17T00:21:26;96781.66;;;20.26;58.86
10476;BME280;26166;48.264;11.436;2022-10-17T00:24:28;96794.75;;;20.27;58.92
10476;BME280;26166;48.264;11.436;2022-10-17T00:27:29;96787.78;;;20.26;58.98
10476;BME280;26166;48.264;11.436;2022-10-17T00:30:29;96792.09;;;20.27;59.04
10476;BME280;26166;48.264;11.436;2022-10-17T00:33:29;96794.75;;;20.27;58.94
10476;BME280;26166;48.264;11.436;2022-10-17T00:36:30;96792.09;;;20.27;58.72
10476;BME280;26166;48.264;11.436;2022-10-17T00:39:30;96791.28;;;20.27;58.98
10476;BME280;26166;48.264;11.436;2022-10-17T00:42:30;96793.13;;;20.26;58.84
10476;BME280;26166;48.264;11.436;2022-10-17T00:45:30;96794.75;;;20.27;58.74
10476;BME280;26166;48.264;11.436;2022-10-17T00:48:30;96798.47;;;20.26;58.75
10476;BME280;26166;48.264;11.436;2022-10-17T00:51:39;96793.13;;;20.26;58.96
10476;BME280;26166;48.264;11.436;2022-10-17T00:54:43;96794.97;;;20.26;58.89
10476;BME280;26166;48.264;11.436;2022-10-17T00:57:44;96789.66;;;20.26;59.01
10476;BME280;26166;48.264;11.436;2022-10-17T01:00:45;96792.31;;;20.26;58.98
10476;BME280;26166;48.264;11.436;2022-10-17T01:03:45;96796.84;;;20.25;58.75
10476;BME280;26166;48.264;11.436;2022-10-17T01:06:46;96791.50;;;20.25;59.01
10476;BME280;26166;48.264;11.436;2022-10-17T01:09:46;96795.22;;;20.24;58.80
10476;BME280;26166;48.264;11.436;2022-10-17T01:12:49;96789.06;;;20.24;58.88
10476;BME280;26166;48.264;11.436;2022-10-17T01:19:01;96786.38;;;20.24;58.90
10476;BME280;26166;48.264;11.436;2022-10-17T01:22:05;96791.50;;;20.25;58.93
10476;BME280;26166;48.264;11.436;2022-10-17T01:25:18;96795.22;;;20.24;58.63
10476;BME280;26166;48.264;11.436;2022-10-17T01:28:40;96789.88;;;20.24;58.82
10476;BME280;26166;48.264;11.436;2022-10-17T01:32:09;96788.03;;;20.25;58.84
10476;BME280;26166;48.264;11.436;2022-10-17T01:35:11;96790.69;;;20.25;58.71
10476;BME280;26166;48.264;11.436;2022-10-17T01:38:17;96784.53;;;20.24;58.98
10476;BME280;26166;48.264;11.436;2022-10-17T01:44:34;96785.56;;;20.23;58.75
10476;BME280;26166;48.264;11.436;2022-10-17T01:47:37;96786.59;;;20.22;58.72
10476;BME280;26166;48.264;11.436;2022-10-17T01:50:43;96788.25;;;20.23;58.75
10476;BME280;26166;48.264;11.436;2022-10-17T01:57:14;96786.59;;;20.22;58.89
10476;BME280;26166;48.264;11.436;2022-10-17T02:00:20;96785.78;;;20.22;58.66
10476;BME280;26166;48.264;11.436;2022-10-17T02:03:21;96775.91;;;20.22;58.73
10476;BME280;26166;48.264;11.436;2022-10-17T02:06:22;96775.91;;;20.22;58.80
10476;BME280;26166;48.264;11.436;2022-10-17T02:09:24;96779.63;;;20.21;58.63
10476;BME280;26166;48.264;11.436;2022-10-17T02:15:45;96775.91;;;20.22;58.76
10476;BME280;26166;48.264;11.436;2022-10-17T02:19:01;96775.91;;;20.22;59.01
10476;BME280;26166;48.264;11.436;2022-10-17T02:31:27;96781.25;;;20.22;58.96
10476;BME280;26166;48.264;11.436;2022-10-17T02:34:31;96775.09;;;20.22;59.11
10476;BME280;26166;48.264;11.436;2022-10-17T02:37:33;96782.06;;;20.23;59.16
10476;BME280;26166;48.264;11.436;2022-10-17T02:40:35;96781.25;;;20.22;59.05
10476;BME280;26166;48.264;11.436;2022-10-17T02:43:36;96782.91;;;20.23;59.19
10476;BME280;26166;48.264;11.436;2022-10-17T02:46:37;96788.25;;;20.23;59.05
10476;BME280;26166;48.264;11.436;2022-10-17T02:49:40;96800.72;;;20.23;59.20
10476;BME280;26166;48.264;11.436;2022-10-17T02:52:44;96805.25;;;20.22;59.09
10476;BME280;26166;48.264;11.436;2022-10-17T02:55:52;96804.25;;;20.23;58.92
10476;BME280;26166;48.264;11.436;2022-10-17T02:58:56;96799.91;;;20.22;59.01
10476;BME280;26166;48.264;11.436;2022-10-17T03:01:57;96798.91;;;20.23;59.25
10476;BME280;26166;48.264;11.436;2022-10-17T03:05:01;96804.25;;;20.23;59.29
10476;BME280;26166;48.264;11.436;2022-10-17T03:08:01;96802.59;;;20.22;58.98
10476;BME280;26166;48.264;11.436;2022-10-17T03:11:01;96807.94;;;20.22;59.09
10476;BME280;26166;48.264;11.436;2022-10-17T03:14:01;96807.94;;;20.22;59.04
10476;BME280;26166;48.264;11.436;2022-10-17T03:17:02;96807.09;;;20.22;59.22
10476;BME280;26166;48.264;11.436;2022-10-17T03:20:02;96810.81;;;20.21;59.06
10476;BME280;26166;48.264;11.436;2022-10-17T03:23:03;96811.63;;;20.21;59.31
10476;BME280;26166;48.264;11.436;2022-10-17T03:26:03;96804.66;;;20.20;59.04
10476;BME280;26166;48.264;11.436;2022-10-17T03:29:04;96804.66;;;20.20;59.27
10476;BME280;26166;48.264;11.436;2022-10-17T03:32:04;96803.03;;;20.19;59.14
10476;BME280;26166;48.264;11.436;2022-10-17T03:35:07;96803.03;;;20.19;58.97
10476;BME280;26166;48.264;11.436;2022-10-17T03:38:08;96803.84;;;20.20;58.89
10476;BME280;26166;48.264;11.436;2022-10-17T03:41:08;96801.19;;;20.20;59.02
10476;BME280;26166;48.264;11.436;2022-10-17T03:44:08;96803.84;;;20.20;58.86
10476;BME280;26166;48.264;11.436;2022-10-17T03:47:09;96800.97;;;20.21;58.90
10476;BME280;26166;48.264;11.436;2022-10-17T03:50:09;96801.78;;;20.22;58.84
10476;BME280;26166;48.264;11.436;2022-10-17T03:53:09;96805.25;;;20.22;58.69
10476;BME280;26166;48.264;11.436;2022-10-17T03:56:13;96809.59;;;20.23;58.81
10476;BME280;26166;48.264;11.436;2022-10-17T03:59:14;96808.75;;;20.23;58.70
10476;BME280;26166;48.264;11.436;2022-10-17T04:02:14;96818.41;;;20.24;58.98
10476;BME280;26166;48.264;11.436;2022-10-17T04:05:14;96814.91;;;20.23;59.05
10476;BME280;26166;48.264;11.436;2022-10-17T04:08:15;96816.75;;;20.23;58.85
10476;BME280;26166;48.264;11.436;2022-10-17T04:11:18;96814.91;;;20.23;59.01
10476;BME280;26166;48.264;11.436;2022-10-17T04:14:18;96823.72;;;20.24;58.84
10476;BME280;26166;48.264;11.436;2022-10-17T04:17:19;96823.72;;;20.24;59.04
10476;BME280;26166;48.264;11.436;2022-10-17T04:20:19;96835.22;;;20.24;59.10
10476;BME280;26166;48.264;11.436;2022-10-17T04:23:20;96829.06;;;20.24;58.87
10476;BME280;26166;48.264;11.436;2022-10-17T04:26:20;96826.41;;;20.24;58.97
10476;BME280;26166;48.264;11.436;2022-10-17T04:29:20;96837.88;;;20.24;59.02
10476;BME280;26166;48.264;11.436;2022-10-17T04:32:21;96836.25;;;20.23;58.93
10476;BME280;26166;48.264;11.436;2022-10-17T04:35:21;96840.56;;;20.24;58.81
10476;BME280;26166;48.264;11.436;2022-10-17T04:38:21;96841.38;;;20.25;58.98
10476;BME280;26166;48.264;11.436;2022-10-17T04:41:21;96837.06;;;20.24;58.86
10476;BME280;26166;48.264;11.436;2022-10-17T04:44:22;96836.84;;;20.25;58.68
10476;BME280;26166;48.264;11.436;2022-10-17T04:47:22;96837.44;;;20.27;59.09
10476;BME280;26166;48.264;11.436;2022-10-17T04:50:23;96848.09;;;20.27;59.20
10476;BME280;26166;48.264;11.436;2022-10-17T04:53:23;96853.44;;;20.27;59.27
10476;BME280;26166;48.264;11.436;2022-10-17T04:56:23;96848.09;;;20.27;59.13
10476;BME280;26166;48.264;11.436;2022-10-17T04:59:24;96857.97;;;20.27;59.12
10476;BME280;26166;48.264;11.436;2022-10-17T05:02:24;96852.63;;;20.27;59.27
10476;BME280;26166;48.264;11.436;2022-10-17T05:05:24;96848.09;;;20.27;58.96
10476;BME280;26166;48.264;11.436;2022-10-17T05:08:24;96849.97;;;20.27;59.12
10476;BME280;26166;48.264;11.436;2022-10-17T05:11:26;96851.81;;;20.26;59.11
10476;BME280;26166;48.264;11.436;2022-10-17T05:14:26;96852.84;;;20.25;59.16
10476;BME280;26166;48.264;11.436;2022-10-17T05:17:26;96855.53;;;20.25;58.86
10476;BME280;26166;48.264;11.436;2022-10-17T05:20:27;96860.84;;;20.25;58.81
10476;BME280;26166;48.264;11.436;2022-10-17T05:23:28;96873.16;;;20.26;59.07
10476;BME280;26166;48.264;11.436;2022-10-17T05:26:28;96877.69;;;20.26;58.74
10476;BME280;26166;48.264;11.436;2022-10-17T05:29:28;96883.81;;;20.26;58.83
10476;BME280;26166;48.264;11.436;2022-10-17T05:32:28;96883.81;;;20.26;58.59
10476;BME280;26166;48.264;11.436;2022-10-17T05:35:28;96880.97;;;20.28;58.71
10476;BME280;26166;48.264;11.436;2022-10-17T05:38:29;96888.13;;;20.27;58.64
10476;BME280;26166;48.264;11.436;2022-10-17T05:41:29;96885.44;;;20.27;58.71
10476;BME280;26166;48.264;11.436;2022-10-17T05:44:29;96882.59;;;20.29;58.68
10476;BME280;26166;48.264;11.436;2022-10-17T05:47:29;96883.63;;;20.28;58.68
10476;BME280;26166;48.264;11.436;2022-10-17T05:50:30;96883.63;;;20.28;58.77
10476;BME280;26166;48.264;11.436;2022-10-17T05:53:31;96888.97;;;20.28;58.65
10476;BME280;26166;48.264;11.436;2022-10-17T05:56:32;96887.13;;;20.28;58.67
10476;BME280;26166;48.264;11.436;2022-10-17T05:59:33;96889.78;;;20.28;58.51
10476;BME280;26166;48.264;11.436;2022-10-17T06:02:33;96892.44;;;20.28;58.54
10476;BME280;26166;48.264;11.436;2022-10-17T06:05:34;96895.31;;;20.27;58.60
10476;BME280;26166;48.264;11.436;2022-10-17T06:08:34;96897.97;;;20.27;58.63
10476;BME280;26166;48.264;11.436;2022-10-17T06:11:34;96901.47;;;20.27;58.42
10476;BME280;26166;48.264;11.436;2022-10-17T06:14:34;96908.66;;;20.27;58.52
10476;BME280;26166;48.264;11.436;2022-10-17T06:17:35;96912.13;;;20.27;58.60
10476;BME280;26166;48.264;11.436;2022-10-17T06:20:35;96912.13;;;20.27;58.55
10476;BME280;26166;48.264;11.436;2022-10-17T06:23:36;96902.50;;;20.26;58.49
10476;BME280;26166;48.264;11.436;2022-10-17T06:26:36;96908.66;;;20.27;58.56
10476;BME280;26166;48.264;11.436;2022-10-17T06:29:36;96915.84;;;20.26;58.59
10476;BME280;26166;48.264;11.436;2022-10-17T06:32:36;96920.13;;;20.27;58.50
10476;BME280;26166;48.264;11.436;2022-10-17T06:35:36;96918.50;;;20.26;58.63
10476;BME280;26166;48.264;11.436;2022-10-17T06:38:37;96919.31;;;20.27;58.60
10476;BME280;26166;48.264;11.436;2022-10-17T06:41:37;96925.47;;;20.27;58.48
10476;BME280;26166;48.264;11.436;2022-10-17T06:44:38;96919.31;;;20.27;58.53
10476;BME280;26166;48.264;11.436;2022-10-17T06:47:40;96921.97;;;20.27;58.41
10476;BME280;26166;48.264;11.436;2022-10-17T06:50:40;96928.75;;;20.29;59.74
10476;BME280;26166;48.264;11.436;2022-10-17T06:53:40;96930.38;;;20.30;59.51
10476;BME280;26166;48.264;11.436;2022-10-17T06:56:40;96949.06;;;20.30;59.21
10476;BME280;26166;48.264;11.436;2022-10-17T06:59:40;96947.44;;;20.29;59.13
10476;BME280;26166;48.264;11.436;2022-10-17T07:02:41;96951.13;;;20.28;59.02
10476;BME280;26166;48.264;11.436;2022-10-17T07:05:41;96953.81;;;20.28;58.72
10476;BME280;26166;48.264;11.436;2022-10-17T07:08:42;96960.16;;;20.27;58.76
10476;BME280;26166;48.264;11.436;2022-10-17T07:11:43;96960.16;;;20.27;58.69
10476;BME280;26166;48.264;11.436;2022-10-17T07:14:44;96962.81;;;20.27;58.79
10476;BME280;26166;48.264;11.436;2022-10-17T07:17:49;96968.16;;;20.27;58.67
10476;BME280;26166;48.264;11.436;2022-10-17T07:20:52;96972.47;;;20.28;58.77
10476;BME280;26166;48.264;11.436;2022-10-17T07:23:54;96969.81;;;20.28;58.74
10476;BME280;26166;48.264;11.436;2022-10-17T07:26:54;96976.16;;;20.27;58.78
10476;BME280;26166;48.264;11.436;2022-10-17T07:29:54;96979.84;;;20.26;58.71
10476;BME280;26166;48.264;11.436;2022-10-17T07:32:54;96987.66;;;20.28;59.09
10476;BME280;26166;48.264;11.436;2022-10-17T07:35:56;96981.50;;;20.27;59.12
10476;BME280;26166;48.264;11.436;2022-10-17T07:38:57;96987.66;;;20.28;58.96
10476;BME280;26166;48.264;11.436;2022-10-17T07:41:57;96994.81;;;20.27;58.87
10476;BME280;26166;48.264;11.436;2022-10-17T07:44:57;96985.19;;;20.26;59.16
10476;BME280;26166;48.264;11.436;2022-10-17T07:47:58;96986.00;;;20.27;58.79
10476;BME280;26166;48.264;11.436;2022-10-17T07:51:00;96981.72;;;20.26;58.92
10476;BME280;26166;48.264;11.436;2022-10-17T07:54:01;96984.38;;;20.26;58.84
10476;BME280;26166;48.264;11.436;2022-10-17T07:57:01;96983.56;;;20.25;59.06
10476;BME280;26166;48.264;11.436;2022-10-17T08:00:01;96989.72;;;20.26;58.84
10476;BME280;26166;48.264;11.436;2022-10-17T08:03:02;96989.94;;;20.24;58.83
10476;BME280;26166;48.264;11.436;2022-10-17T08:06:02;96995.25;;;20.24;59.17
10476;BME280;26166;48.264;11.436;2022-10-17T08:09:03;96993.63;;;20.23;58.89
10476;BME280;26166;48.264;11.436;2022-10-17T08:12:03;96990.97;;;20.23;58.99
10476;BME280;26166;48.264;11.436;2022-10-17T08:15:04;96991.97;;;20.22;58.93
10476;BME280;26166;48.264;11.436;2022-10-17T08:18:04;96991.16;;;20.22;58.90
10476;BME280;26166;48.264;11.436;2022-10-17T08:21:04;96994.63;;;20.22;59.15
10476;BME280;26166;48.264;11.436;2022-10-17T08:24:05;96988.50;;;20.22;58.96
10476;BME280;26166;48.264;11.436;2022-10-17T08:27:05;96989.31;;;20.22;59.01
10476;BME280;26166;48.264;11.436;2022-10-17T08:30:10;96994.63;;;20.22;58.96
10476;BME280;26166;48.264;11.436;2022-10-17T08:33:10;96995.69;;;20.21;59.10
10476;BME280;26166;48.264;11.436;2022-10-17T08:36:12;96994.63;;;20.22;59.02
10476;BME280;26166;48.264;11.436;2022-10-17T08:39:12;97005.31;;;20.22;58.81
10476;BME280;26166;48.264;11.436;2022-10-17T08:45:33;97010.66;;;20.22;58.95
10476;BME280;26166;48.264;11.436;2022-10-17T08:48:39;97005.31;;;20.22;58.83
10476;BME280;26166;48.264;11.436;2022-10-17T08:51:44;97007.97;;;20.22;58.88
10476;BME280;26166;48.264;11.436;2022-10-17T08:54:47;97003.47;;;20.23;58.73
10476;BME280;26166;48.264;11.436;2022-10-17T08:57:48;97004.31;;;20.23;58.69
10476;BME280;26166;48.264;11.436;2022-10-17T09:00:50;96998.75;;;20.25;58.55
10476;BME280;26166;48.264;11.436;2022-10-17T09:13:20;97000.38;;;20.26;58.55
10476;BME280;26166;48.264;11.436;2022-10-17T09:16:27;97003.88;;;20.26;58.49
10476;BME280;26166;48.264;11.436;2022-10-17T09:20:15;97008.38;;;20.26;58.76
10476;BME280;26166;48.264;11.436;2022-10-17T09:23:03;97011.06;;;20.26;58.46
10476;BME280;26166;48.264;11.436;2022-10-17T09:26:04;97008.38;;;20.26;58.46
10476;BME280;26166;48.264;11.436;2022-10-17T09:29:16;97001.19;;;20.26;58.65
10476;BME280;26166;48.264;11.436;2022-10-17T09:32:18;97001.19;;;20.26;58.44
10476;BME280;26166;48.264;11.436;2022-10-17T09:35:20;97003.06;;;20.26;58.48
10476;BME280;26166;48.264;11.436;2022-10-17T09:38:22;97003.06;;;20.26;58.69
10476;BME280;26166;48.264;11.436;2022-10-17T09:41:26;97010.25;;;20.25;58.67
10476;BME280;26166;48.264;11.436;2022-10-17T09:44:30;97009.19;;;20.26;58.57
10476;BME280;26166;48.264;11.436;2022-10-17T09:47:39;97009.19;;;20.26;58.59
10476;BME280;26166;48.264;11.436;2022-10-17T09:50:40;97010.03;;;20.27;58.32
10476;BME280;26166;48.264;11.436;2022-10-17T09:53:50;97015.34;;;20.27;58.41
10476;BME280;26166;48.264;11.436;2022-10-17T09:56:58;97003.69;;;20.28;58.59
10476;BME280;26166;48.264;11.436;2022-10-17T10:00:00;97005.72;;;20.26;58.57
10476;BME280;26166;48.264;11.436;2022-10-17T10:03:12;97014.53;;;20.26;58.63
10476;BME280;26166;48.264;11.436;2022-10-17T10:06:17;97011.88;;;20.26;58.67
10476;BME280;26166;48.264;11.436;2022-10-17T10:09:21;97023.34;;;20.27;58.47
10476;BME280;26166;48.264;11.436;2022-10-17T10:12:26;97013.50;;;20.27;58.62
10476;BME280;26166;48.264;11.436;2022-10-17T10:15:35;97016.16;;;20.27;58.48
10476;BME280;26166;48.264;11.436;2022-10-17T10:18:36;97016.16;;;20.27;58.39
10476;BME280;26166;48.264;11.436;2022-10-17T10:21:37;97013.50;;;20.27;58.50
10476;BME280;26166;48.264;11.436;2022-10-17T10:25:12;97011.06;;;20.26;58.36
10476;BME280;26166;48.264;11.436;2022-10-17T10:28:13;97009.19;;;20.26;58.51
10476;BME280;26166;48.264;11.436;2022-10-17T10:31:15;97011.88;;;20.26;58.49
10476;BME280;26166;48.264;11.436;2022-10-17T10:34:25;97011.88;;;20.26;58.60
10476;BME280;26166;48.264;11.436;2022-10-17T10:37:27;97018.84;;;20.27;58.55
10476;BME280;26166;48.264;11.436;2022-10-17T10:40:30;97008.16;;;20.27;58.32
10476;BME280;26166;48.264;11.436;2022-10-17T10:43:35;97013.50;;;20.27;58.38
10476;BME280;26166;48.264;11.436;2022-10-17T10:46:36;97015.16;;;20.28;58.25
10476;BME280;26166;48.264;11.436;2022-10-17T10:49:40;97013.31;;;20.29;58.34
10476;BME280;26166;48.264;11.436;2022-10-17T10:52:42;97013.31;;;20.29;58.35
10476;BME280;26166;48.264;11.436;2022-10-17T10:55:53;97006.13;;;20.29;58.51
10476;BME280;26166;48.264;11.436;2022-10-17T10:58:59;97003.47;;;20.29;58.55
10476;BME280;26166;48.264;11.436;2022-10-17T11:05:22;97006.13;;;20.29;58.42
10476;BME280;26166;48.264;11.436;2022-10-17T11:11:31;96999.16;;;20.28;58.47
10476;BME280;26166;48.264;11.436;2022-10-17T11:14:36;96997.09;;;20.30;58.30
10476;BME280;26166;48.264;11.436;2022-10-17T11:17:44;96996.50;;;20.28;58.44
10476;BME280;26166;48.264;11.436;2022-10-17T11:20:50;96988.47;;;20.28;58.45
10476;BME280;26166;48.264;11.436;2022-10-17T11:24:02;96989.31;;;20.29;58.27
10476;BME280;26166;48.264;11.436;2022-10-17T11:27:06;96990.34;;;20.28;58.36
10476;BME280;26166;48.264;11.436;2022-10-17T11:30:08;96993.81;;;20.28;58.31
10476;BME280;26166;48.264;11.436;2022-10-17T11:33:13;96998.13;;;20.29;58.31
10476;BME280;26166;48.264;11.436;2022-10-17T11:36:15;96990.13;;;20.29;58.41
10476;BME280;26166;48.264;11.436;2022-10-17T11:42:27;96980.47;;;20.28;58.31
10476;BME280;26166;48.264;11.436;2022-10-17T11:45:30;96985.81;;;20.28;58.21
10476;BME280;26166;48.264;11.436;2022-10-17T11:52:38;96985.81;;;20.28;58.50
10476;BME280;26166;48.264;11.436;2022-10-17T11:55:20;96986.63;;;20.29;58.32
10476;BME280;26166;48.264;11.436;2022-10-17T11:58:23;96986.81;;;20.27;58.35
10476;BME280;26166;48.264;11.436;2022-10-17T12:01:38;96985.81;;;20.28;58.30
10476;BME280;26166;48.264;11.436;2022-10-17T12:07:49;96983.97;;;20.29;58.29
10476;BME280;26166;48.264;11.436;2022-10-17T12:14:09;96983.16;;;20.28;58.38
10476;BME280;26166;48.264;11.436;2022-10-17T12:20:24;96981.50;;;20.27;58.41
10476;BME280;26166;48.264;11.436;2022-10-17T12:23:26;96975.97;;;20.29;58.47
10476;BME280;26166;48.264;11.436;2022-10-17T12:26:28;96983.16;;;20.28;58.36
10476;BME280;26166;48.264;11.436;2022-10-17T12:29:28;96978.63;;;20.29;58.36
10476;BME280;26166;48.264;11.436;2022-10-17T12:32:29;96972.47;;;20.28;58.31
10476;BME280;26166;48.264;11.436;2022-10-17T12:35:30;96974.94;;;20.30;58.28
10476;BME280;26166;48.264;11.436;2022-10-17T12:38:31;96980.25;;;20.30;58.54
10476;BME280;26166;48.264;11.436;2022-10-17T12:44:37;96975.75;;;20.30;58.27
10476;BME280;26166;48.264;11.436;2022-10-17T12:47:38;96972.03;;;20.31;58.47
10476;BME280;26166;48.264;11.436;2022-10-17T12:54:14;96974.50;;;20.33;58.48
10476;BME280;26166;48.264;11.436;2022-10-17T12:57:24;96974.50;;;20.33;58.29
10476;BME280;26166;48.264;11.436;2022-10-17T13:03:45;96979.84;;;20.33;58.39
10476;BME280;26166;48.264;11.436;2022-10-17T13:06:47;96983.34;;;20.33;58.42
10476;BME280;26166;48.264;11.436;2022-10-17T13:09:48;96979.63;;;20.34;58.27
10476;BME280;26166;48.264;11.436;2022-10-17T13:12:49;96977.78;;;20.35;58.37
10476;BME280;26166;48.264;11.436;2022-10-17T13:15:51;96977.78;;;20.35;58.47
10476;BME280;26166;48.264;11.436;2022-10-17T13:18:51;96975.94;;;20.35;58.44
10476;BME280;26166;48.264;11.436;2022-10-17T13:21:53;96967.91;;;20.35;58.31
10476;BME280;26166;48.264;11.436;2022-10-17T13:25:06;96974.28;;;20.34;58.44
10476;BME280;26166;48.264;11.436;2022-10-17T13:28:10;96978.59;;;20.35;58.50
10476;BME280;26166;48.264;11.436;2022-10-17T13:31:31;96977.78;;;20.35;58.31
10476;BME280;26166;48.264;11.436;2022-10-17T13:34:32;96973.47;;;20.34;58.38
10476;BME280;26166;48.264;11.436;2022-10-17T13:37:33;96976.97;;;20.34;58.44
10476;BME280;26166;48.264;11.436;2022-10-17T13:40:38;96971.63;;;20.34;58.21
10476;BME280;26166;48.264;11.436;2022-10-17T13:43:39;96975.34;;;20.33;58.41
10476;BME280;26166;48.264;11.436;2022-10-17T13:46:39;96978.81;;;20.34;58.37
10476;BME280;26166;48.264;11.436;2022-10-17T13:49:40;96976.38;;;20.32;58.35
10476;BME280;26166;48.264;11.436;2022-10-17T13:52:41;96979.84;;;20.33;58.42
10476;BME280;26166;48.264;11.436;2022-10-17T13:58:58;96968.38;;;20.32;58.42
10476;BME280;26166;48.264;11.436;2022-10-17T14:01:59;96968.38;;;20.32;58.54
10476;BME280;26166;48.264;11.436;2022-10-17T14:05:02;96976.38;;;20.32;58.35
10476;BME280;26166;48.264;11.436;2022-10-17T14:08:03;96980.66;;;20.33;58.39
10476;BME280;26166;48.264;11.436;2022-10-17T14:11:12;96978.19;;;20.32;58.45
10476;BME280;26166;48.264;11.436;2022-10-17T14:14:19;96978.59;;;20.35;58.76
10476;BME280;26166;48.264;11.436;2022-10-17T14:17:25;96972.84;;;20.38;59.43
10476;BME280;26166;48.264;11.436;2022-10-17T14:20:26;96978.16;;;20.52;60.91
10476;BME280;26166;48.264;11.436;2022-10-17T14:26:28;96972.72;;;22.10;57.89
10476;BME280;26166;48.264;11.436;2022-10-17T14:29:30;96975.84;;;23.22;55.03
10476;BME280;26166;48.264;11.436;2022-10-17T14:32:31;96967.44;;;24.19;53.11
10476;BME280;26166;48.264;11.436;2022-10-17T14:35:33;96970.53;;;25.20;51.02
10476;BME280;26166;48.264;11.436;2022-10-17T14:38:34;96968.34;;;25.84;49.87
10476;BME280;26166;48.264;11.436;2022-10-17T14:41:35;96972.50;;;26.48;47.96
10476;BME280;26166;48.264;11.436;2022-10-17T14:44:37;96974.19;;;27.03;47.60
10476;BME280;26166;48.264;11.436;2022-10-17T14:47:37;96978.88;;;27.39;47.45
10476;BME280;26166;48.264;11.436;2022-10-17T14:50:38;96976.56;;;27.21;49.26
10476;BME280;26166;48.264;11.436;2022-10-17T14:53:39;96976.34;;;27.01;49.55
10476;BME280;26166;48.264;11.436;2022-10-17T14:56:40;96982.63;;;26.02;49.28
10476;BME280;26166;48.264;11.436;2022-10-17T14:59:41;96980.38;;;25.31;51.26
10476;BME280;26166;48.264;11.436;2022-10-17T15:02:41;96982.69;;;24.82;51.85
10476;BME280;26166;48.264;11.436;2022-10-17T15:05:42;96984.00;;;24.39;52.87
10476;BME280;26166;48.264;11.436;2022-10-17T15:08:42;96991.22;;;24.04;53.32
10476;BME280;26166;48.264;11.436;2022-10-17T15:11:42;96998.13;;;23.76;53.90
10476;BME280;26166;48.264;11.436;2022-10-17T15:14:43;96993.97;;;23.50;54.47
10476;BME280;26166;48.264;11.436;2022-10-17T15:17:43;96999.91;;;23.29;54.87
10476;BME280;26166;48.264;11.436;2022-10-17T15:20:43;97000.63;;;23.06;55.54
10476;BME280;26166;48.264;11.436;2022-10-17T15:23:44;96991.13;;;22.91;55.70
10476;BME280;26166;48.264;11.436;2022-10-17T15:26:44;97000.38;;;22.77;55.68
10476;BME280;26166;48.264;11.436;2022-10-17T15:29:44;97007.75;;;22.63;55.98
10476;BME280;26166;48.264;11.436;2022-10-17T15:32:45;97008.72;;;22.51;56.17
10476;BME280;26166;48.264;11.436;2022-10-17T15:35:45;97010.50;;;22.38;56.63
10476;BME280;26166;48.264;11.436;2022-10-17T15:38:45;97010.34;;;22.33;56.73
10476;BME280;26166;48.264;11.436;2022-10-17T15:41:46;97004.56;;;22.18;56.80
10476;BME280;26166;48.264;11.436;2022-10-17T15:44:47;97014.72;;;22.09;57.22
10476;BME280;26166;48.264;11.436;2022-10-17T15:47:50;97009.63;;;22.01;56.99
10476;BME280;26166;48.264;11.436;2022-10-17T15:50:50;97018.97;;;21.92;57.43
10476;BME280;26166;48.264;11.436;2022-10-17T15:53:50;97021.69;;;21.85;57.40
10476;BME280;26166;48.264;11.436;2022-10-17T15:56:51;97017.66;;;21.76;57.66
10476;BME280;26166;48.264;11.436;2022-10-17T15:59:53;97024.91;;;21.69;57.98
10476;BME280;26166;48.264;11.436;2022-10-17T16:02:53;97016.16;;;21.62;57.88
10476;BME280;26166;48.264;11.436;2022-10-17T16:05:53;97032.03;;;21.57;58.31
10476;BME280;26166;48.264;11.436;2022-10-17T16:08:54;97030.22;;;21.51;58.25
10476;BME280;26166;48.264;11.436;2022-10-17T16:11:54;97043.41;;;21.46;58.31
10476;BME280;26166;48.264;11.436;2022-10-17T16:14:54;97032.53;;;21.40;58.60
10476;BME280;26166;48.264;11.436;2022-10-17T16:17:55;97043.06;;;21.35;58.70
10476;BME280;26166;48.264;11.436;2022-10-17T16:20:56;97042.88;;;21.30;58.52
10476;BME280;26166;48.264;11.436;2022-10-17T16:23:57;97046.78;;;21.28;58.65
10476;BME280;26166;48.264;11.436;2022-10-17T16:26:58;97048.25;;;21.24;58.64
10476;BME280;26166;48.264;11.436;2022-10-17T16:29:58;97046.03;;;21.21;58.91
10476;BME280;26166;48.264;11.436;2022-10-17T16:32:58;97048.88;;;21.19;59.24
10476;BME280;26166;48.264;11.436;2022-10-17T16:35:59;97056.50;;;21.15;59.02
10476;BME280;26166;48.264;11.436;2022-10-17T16:38:59;97058.59;;;21.13;59.32
10476;BME280;26166;48.264;11.436;2022-10-17T16:41:59;97057.38;;;21.09;59.34
10476;BME280;26166;48.264;11.436;2022-10-17T16:44:59;97065.59;;;21.08;59.27
10476;BME280;26166;48.264;11.436;2022-10-17T16:48:00;97069.50;;;21.05;59.34
10476;BME280;26166;48.264;11.436;2022-10-17T16:51:00;97065.41;;;21.03;59.30
10476;BME280;26166;48.264;11.436;2022-10-17T16:54:01;97067.47;;;21.01;59.56
10476;BME280;26166;48.264;11.436;2022-10-17T16:57:08;97071.38;;;20.98;59.52
10476;BME280;26166;48.264;11.436;2022-10-17T17:00:10;97076.94;;;20.97;59.69
10476;BME280;26166;48.264;11.436;2022-10-17T17:03:11;97075.72;;;20.92;59.89
10476;BME280;26166;48.264;11.436;2022-10-17T17:06:13;97086.41;;;20.92;59.77